createdAt,value
2022-10-28T12:00:00.529Z,8.9
2022-10-28T12:05:00.195Z,11.7
2022-10-28T12:10:00.266Z,10.4
2022-10-28T12:15:00.400Z,10.4
2022-10-28T12:20:00.247Z,7.9
2022-10-28T12:25:00.356Z,6.3
2022-10-28T12:30:00.385Z,14.8
2022-10-28T12:35:00.384Z,10.2
2022-10-28T12:40:00.306Z,12.1
2022-10-28T12:45:00.291Z,10.7
2022-10-28T12:50:00.336Z,8.6
2022-10-28T12:55:00.349Z,12.4
2022-10-28T13:00:00.302Z,11.2
2022-10-28T13:05:00.463Z,11.2
2022-10-28T13:10:00.210Z,11.4
2022-10-28T13:15:00.373Z,11.5
2022-10-28T13:20:00.575Z,7.0
2022-10-28T13:25:00.373Z,10.6
2022-10-28T13:30:00.344Z,7.2
2022-10-28T13:35:00.167Z,12.3
2022-10-28T13:40:00.302Z,10.2
2022-10-28T13:45:00.320Z,11.2
2022-10-28T13:50:00.241Z,11.1
2022-10-28T13:55:00.402Z,12.1
2022-10-28T14:00:00.370Z,12.3
2022-10-28T14:05:00.427Z,10.5
2022-10-28T14:10:00.217Z,10.5
2022-10-28T14:15:00.387Z,13.0
2022-10-28T14:20:00.243Z,10.2
2022-10-28T14:25:00.395Z,12.2
2022-10-28T14:30:00.219Z,9.5
2022-10-28T14:35:00.241Z,9.5
2022-10-28T14:40:00.303Z,11.8
2022-10-28T14:45:00.299Z,15.1
2022-10-28T14:50:00.218Z,17.0
2022-10-28T14:55:00.558Z,7.5
2022-10-28T15:00:00.216Z,15.3
2022-10-28T15:05:00.268Z,11.6
2022-10-28T15:10:00.346Z,11.4
2022-10-28T15:15:00.301Z,10.0
2022-10-28T15:20:00.279Z,13.2
2022-10-28T15:25:00.346Z,9.6
2022-10-28T15:30:00.263Z,14.8
2022-10-28T15:35:00.408Z,15.6
2022-10-28T15:40:05.389Z,12.0
2022-10-28T15:45:00.403Z,10.4
2022-10-28T15:50:00.379Z,9.7
2022-10-28T15:55:00.273Z,7.5
2022-10-28T16:00:00.357Z,12.8
2022-10-28T16:05:00.249Z,10.4
2022-10-28T16:10:00.284Z,9.8
2022-10-28T16:15:00.349Z,10.3
2022-10-28T16:20:00.385Z,15.8
2022-10-28T16:25:00.471Z,11.4
2022-10-28T16:30:00.331Z,9.3
2022-10-28T16:35:00.337Z,12.4
2022-10-28T16:40:00.360Z,17.6
2022-10-28T16:45:00.157Z,13.8
2022-10-28T16:50:00.374Z,16.4
2022-10-28T16:55:00.321Z,9.8
2022-10-28T17:00:00.290Z,12.5
2022-10-28T17:05:00.271Z,16.2
2022-10-28T17:10:00.357Z,13.7
2022-10-28T17:15:00.506Z,13.3
2022-10-28T17:20:00.202Z,14.8
2022-10-28T17:25:00.397Z,11.7
2022-10-28T17:30:00.318Z,15.0
2022-10-28T17:35:00.291Z,15.3
2022-10-28T17:40:00.497Z,13.2
2022-10-28T17:45:00.355Z,14.0
2022-10-28T17:50:00.290Z,17.0
2022-10-28T17:55:00.457Z,21.1
2022-10-28T18:00:00.515Z,22.8
2022-10-28T18:05:00.252Z,15.1
2022-10-28T18:10:00.324Z,20.0
2022-10-28T18:15:00.384Z,21.5
2022-10-28T18:20:00.302Z,22.7
2022-10-28T18:25:00.158Z,17.8
2022-10-28T18:30:00.438Z,23.8
2022-10-28T18:35:00.395Z,20.8
2022-10-28T18:40:00.406Z,16.8
2022-10-28T18:45:00.430Z,21.2
2022-10-28T18:50:00.541Z,22.2
2022-10-28T18:55:00.167Z,23.0
2022-10-28T19:00:19.011Z,27.5
2022-10-28T19:05:00.269Z,22.8
2022-10-28T19:10:00.287Z,16.8
2022-10-28T19:15:00.282Z,16.0
2022-10-28T19:20:00.373Z,16.2
2022-10-28T19:25:00.326Z,15.0
2022-10-28T19:30:00.400Z,11.2
2022-10-28T19:35:00.356Z,15.4
2022-10-28T19:40:00.461Z,15.8
2022-10-28T19:45:00.204Z,10.3
2022-10-28T19:50:00.334Z,16.1
2022-10-28T19:55:00.334Z,16.5
2022-10-28T20:00:00.398Z,11.3
2022-10-28T20:05:00.275Z,18.2
2022-10-28T20:10:00.591Z,15.2
2022-10-28T20:15:00.415Z,16.6
2022-10-28T20:20:00.238Z,14.8
2022-10-28T20:25:00.356Z,17.6
2022-10-28T20:30:00.234Z,15.0
2022-10-28T20:35:00.225Z,17.0
2022-10-28T20:40:04.529Z,13.7
2022-10-28T20:45:00.287Z,14.3
2022-10-28T20:50:00.272Z,15.6
2022-10-28T20:55:00.231Z,15.1
2022-10-28T21:00:00.302Z,14.3
2022-10-28T21:05:00.433Z,17.6
2022-10-28T21:10:00.345Z,19.1
2022-10-28T21:15:00.455Z,13.7
2022-10-28T21:25:00.293Z,12.9
2022-10-28T21:30:00.386Z,19.0
2022-10-28T21:35:00.311Z,19.9
2022-10-28T21:40:01.177Z,14.0
2022-10-28T21:45:00.398Z,13.9
2022-10-28T21:50:00.391Z,15.9
2022-10-28T21:55:05.994Z,18.8
2022-10-28T22:00:00.252Z,17.9
2022-10-28T22:05:00.334Z,15.7
2022-10-28T22:10:00.168Z,18.4
2022-10-28T22:15:00.327Z,16.7
2022-10-28T22:20:00.475Z,13.3
2022-10-28T22:25:00.164Z,17.8
2022-10-28T22:30:00.241Z,15.2
2022-10-28T22:40:00.445Z,21.6
2022-10-28T22:45:00.355Z,16.0
2022-10-28T23:10:00.344Z,19.5
2022-10-28T23:15:00.156Z,17.9
2022-10-28T23:20:00.318Z,13.6
2022-10-28T23:25:00.279Z,13.9
2022-10-28T23:30:00.555Z,16.7
2022-10-28T23:35:00.278Z,21.7
2022-10-28T23:40:00.552Z,14.9
2022-10-28T23:45:00.254Z,18.6
2022-10-28T23:50:00.337Z,18.1
2022-10-28T23:55:00.174Z,15.9
